sensor_id;sensor_type;location;lat;lon;timestamp;pressure;altitude;pressure_sealevel;temperature
17142;BMP180;32805;53.556;9.944;2022-09-27T00:02:04;99033.00;;;11.80
17142;BMP180;32805;53.556;9.944;2022-09-27T00:04:32;99034.00;;;11.80
17142;BMP180;32805;53.556;9.944;2022-09-27T00:07:00;99029.00;;;11.70
17142;BMP180;32805;53.556;9.944;2022-09-27T00:09:30;99032.00;;;11.90
17142;BMP180;32805;53.556;9.944;2022-09-27T00:12:01;99029.00;;;11.70
17142;BMP180;32805;53.556;9.944;2022-09-27T00:14:29;99031.00;;;11.70
17142;BMP180;32805;53.556;9.944;2022-09-27T00:16:57;99031.00;;;11.70
17142;BMP180;32805;53.556;9.944;2022-09-27T00:19:25;99029.00;;;11.80
17142;BMP180;32805;53.556;9.944;2022-09-27T00:21:52;99033.00;;;11.70
17142;BMP180;32805;53.556;9.944;2022-09-27T00:24:21;99026.00;;;11.80
17142;BMP180;32805;53.556;9.944;2022-09-27T00:26:50;99019.00;;;11.90
17142;BMP180;32805;53.556;9.944;2022-09-27T00:29:18;99017.00;;;11.70
17142;BMP180;32805;53.556;9.944;2022-09-27T00:31:46;99019.00;;;11.90
17142;BMP180;32805;53.556;9.944;2022-09-27T00:34:18;99016.00;;;11.90
17142;BMP180;32805;53.556;9.944;2022-09-27T00:36:46;99004.00;;;11.60
17142;BMP180;32805;53.556;9.944;2022-09-27T00:39:14;99010.00;;;11.70
17142;BMP180;32805;53.556;9.944;2022-09-27T00:41:43;99017.00;;;11.60
17142;BMP180;32805;53.556;9.944;2022-09-27T00:44:51;99006.00;;;11.70
17142;BMP180;32805;53.556;9.944;2022-09-27T00:47:24;99014.00;;;11.70
17142;BMP180;32805;53.556;9.944;2022-09-27T00:49:55;98998.00;;;11.70
17142;BMP180;32805;53.556;9.944;2022-09-27T00:52:27;98998.00;;;11.80
17142;BMP180;32805;53.556;9.944;2022-09-27T00:54:59;99000.00;;;11.60
17142;BMP180;32805;53.556;9.944;2022-09-27T00:57:28;98990.00;;;11.50
17142;BMP180;32805;53.556;9.944;2022-09-27T01:00:01;98990.00;;;11.80
17142;BMP180;32805;53.556;9.944;2022-09-27T01:02:29;98995.00;;;11.60
17142;BMP180;32805;53.556;9.944;2022-09-27T01:04:57;98995.00;;;11.70
17142;BMP180;32805;53.556;9.944;2022-09-27T01:07:26;98993.00;;;11.60
17142;BMP180;32805;53.556;9.944;2022-09-27T01:09:56;98991.00;;;11.60
17142;BMP180;32805;53.556;9.944;2022-09-27T01:12:30;98986.00;;;11.50
17142;BMP180;32805;53.556;9.944;2022-09-27T01:15:13;98975.00;;;11.70
17142;BMP180;32805;53.556;9.944;2022-09-27T01:17:51;98983.00;;;11.60
17142;BMP180;32805;53.556;9.944;2022-09-27T01:21:01;98989.00;;;11.60
17142;BMP180;32805;53.556;9.944;2022-09-27T01:26:52;98973.00;;;11.50
17142;BMP180;32805;53.556;9.944;2022-09-27T01:29:34;98978.00;;;11.50
17142;BMP180;32805;53.556;9.944;2022-09-27T01:32:16;98978.00;;;11.40
17142;BMP180;32805;53.556;9.944;2022-09-27T01:34:55;98966.00;;;11.50
17142;BMP180;32805;53.556;9.944;2022-09-27T01:37:34;98976.00;;;11.40
17142;BMP180;32805;53.556;9.944;2022-09-27T01:40:08;98978.00;;;11.50
17142;BMP180;32805;53.556;9.944;2022-09-27T01:43:01;98965.00;;;11.50
17142;BMP180;32805;53.556;9.944;2022-09-27T01:45:37;98970.00;;;11.70
17142;BMP180;32805;53.556;9.944;2022-09-27T01:48:19;98965.00;;;11.60
17142;BMP180;32805;53.556;9.944;2022-09-27T01:50:54;98960.00;;;11.60
17142;BMP180;32805;53.556;9.944;2022-09-27T01:53:25;98958.00;;;11.60
17142;BMP180;32805;53.556;9.944;2022-09-27T01:56:12;98959.00;;;11.60
17142;BMP180;32805;53.556;9.944;2022-09-27T01:58:56;98962.00;;;11.50
17142;BMP180;32805;53.556;9.944;2022-09-27T02:01:26;98947.00;;;11.50
17142;BMP180;32805;53.556;9.944;2022-09-27T02:03:57;98944.00;;;11.40
17142;BMP180;32805;53.556;9.944;2022-09-27T02:06:50;98944.00;;;11.50
17142;BMP180;32805;53.556;9.944;2022-09-27T02:09:26;98941.00;;;11.50
17142;BMP180;32805;53.556;9.944;2022-09-27T02:12:12;98945.00;;;11.60
17142;BMP180;32805;53.556;9.944;2022-09-27T02:14:44;98952.00;;;11.50
17142;BMP180;32805;53.556;9.944;2022-09-27T02:17:22;98941.00;;;11.50
17142;BMP180;32805;53.556;9.944;2022-09-27T02:19:57;98943.00;;;11.60
17142;BMP180;32805;53.556;9.944;2022-09-27T02:22:36;98943.00;;;11.50
17142;BMP180;32805;53.556;9.944;2022-09-27T02:25:12;98947.00;;;11.50
17142;BMP180;32805;53.556;9.944;2022-09-27T02:27:49;98948.00;;;11.50
17142;BMP180;32805;53.556;9.944;2022-09-27T02:30:19;98942.00;;;11.60
17142;BMP180;32805;53.556;9.944;2022-09-27T02:32:54;98949.00;;;11.60
17142;BMP180;32805;53.556;9.944;2022-09-27T02:35:28;98933.00;;;11.50
17142;BMP180;32805;53.556;9.944;2022-09-27T02:37:58;98943.00;;;11.60
17142;BMP180;32805;53.556;9.944;2022-09-27T02:40:30;98926.00;;;11.60
17142;BMP180;32805;53.556;9.944;2022-09-27T02:42:59;98915.00;;;11.60
17142;BMP180;32805;53.556;9.944;2022-09-27T02:45:30;98926.00;;;11.50
17142;BMP180;32805;53.556;9.944;2022-09-27T02:48:10;98931.00;;;11.50
17142;BMP180;32805;53.556;9.944;2022-09-27T02:51:10;98927.00;;;11.50
17142;BMP180;32805;53.556;9.944;2022-09-27T02:53:52;98927.00;;;11.50
17142;BMP180;32805;53.556;9.944;2022-09-27T02:56:52;98926.00;;;11.60
17142;BMP180;32805;53.556;9.944;2022-09-27T03:00:05;98926.00;;;11.40
17142;BMP180;32805;53.556;9.944;2022-09-27T03:02:51;98928.00;;;11.40
17142;BMP180;32805;53.556;9.944;2022-09-27T03:05:25;98926.00;;;11.40
17142;BMP180;32805;53.556;9.944;2022-09-27T03:07:55;98905.00;;;11.40
17142;BMP180;32805;53.556;9.944;2022-09-27T03:10:25;98921.00;;;11.40
17142;BMP180;32805;53.556;9.944;2022-09-27T03:12:54;98919.00;;;11.40
17142;BMP180;32805;53.556;9.944;2022-09-27T03:15:23;98909.00;;;11.50
17142;BMP180;32805;53.556;9.944;2022-09-27T03:17:59;98922.00;;;11.50
17142;BMP180;32805;53.556;9.944;2022-09-27T03:20:59;98910.00;;;11.40
17142;BMP180;32805;53.556;9.944;2022-09-27T03:23:28;98907.00;;;11.50
17142;BMP180;32805;53.556;9.944;2022-09-27T03:25:56;98912.00;;;11.50
17142;BMP180;32805;53.556;9.944;2022-09-27T03:28:25;98912.00;;;11.50
17142;BMP180;32805;53.556;9.944;2022-09-27T03:30:55;98891.00;;;11.50
17142;BMP180;32805;53.556;9.944;2022-09-27T03:33:52;98895.00;;;11.40
17142;BMP180;32805;53.556;9.944;2022-09-27T03:36:20;98901.00;;;11.40
17142;BMP180;32805;53.556;9.944;2022-09-27T03:38:50;98898.00;;;11.40
17142;BMP180;32805;53.556;9.944;2022-09-27T03:41:19;98898.00;;;11.40
17142;BMP180;32805;53.556;9.944;2022-09-27T03:43:47;98886.00;;;11.50
17142;BMP180;32805;53.556;9.944;2022-09-27T03:46:15;98887.00;;;11.50
17142;BMP180;32805;53.556;9.944;2022-09-27T03:48:43;98885.00;;;11.50
17142;BMP180;32805;53.556;9.944;2022-09-27T03:51:10;98890.00;;;11.40
17142;BMP180;32805;53.556;9.944;2022-09-27T03:53:38;98890.00;;;11.40
17142;BMP180;32805;53.556;9.944;2022-09-27T03:56:07;98887.00;;;11.50
17142;BMP180;32805;53.556;9.944;2022-09-27T03:58:35;98885.00;;;11.40
17142;BMP180;32805;53.556;9.944;2022-09-27T04:01:04;98881.00;;;11.40
17142;BMP180;32805;53.556;9.944;2022-09-27T04:03:33;98881.00;;;11.30
17142;BMP180;32805;53.556;9.944;2022-09-27T04:06:34;98872.00;;;11.50
17142;BMP180;32805;53.556;9.944;2022-09-27T04:09:03;98871.00;;;11.30
17142;BMP180;32805;53.556;9.944;2022-09-27T04:11:54;98865.00;;;11.40
17142;BMP180;32805;53.556;9.944;2022-09-27T04:14:22;98873.00;;;11.50
17142;BMP180;32805;53.556;9.944;2022-09-27T04:17:12;98867.00;;;11.50
17142;BMP180;32805;53.556;9.944;2022-09-27T04:20:00;98871.00;;;11.60
17142;BMP180;32805;53.556;9.944;2022-09-27T04:22:30;98871.00;;;11.60
17142;BMP180;32805;53.556;9.944;2022-09-27T04:24:58;98864.00;;;11.40
17142;BMP180;32805;53.556;9.944;2022-09-27T04:27:39;98868.00;;;11.50
17142;BMP180;32805;53.556;9.944;2022-09-27T04:30:12;98851.00;;;11.60
17142;BMP180;32805;53.556;9.944;2022-09-27T04:33:03;98878.00;;;11.60
17142;BMP180;32805;53.556;9.944;2022-09-27T04:35:49;98873.00;;;11.40
17142;BMP180;32805;53.556;9.944;2022-09-27T04:38:38;98866.00;;;11.40
17142;BMP180;32805;53.556;9.944;2022-09-27T04:41:07;98880.00;;;11.30
17142;BMP180;32805;53.556;9.944;2022-09-27T04:43:39;98874.00;;;11.40
17142;BMP180;32805;53.556;9.944;2022-09-27T04:46:07;98865.00;;;11.40
17142;BMP180;32805;53.556;9.944;2022-09-27T04:48:35;98869.00;;;11.40
17142;BMP180;32805;53.556;9.944;2022-09-27T04:51:03;98864.00;;;11.50
17142;BMP180;32805;53.556;9.944;2022-09-27T04:53:32;98857.00;;;11.30
17142;BMP180;32805;53.556;9.944;2022-09-27T04:56:00;98861.00;;;11.30
17142;BMP180;32805;53.556;9.944;2022-09-27T04:58:33;98867.00;;;11.40
17142;BMP180;32805;53.556;9.944;2022-09-27T05:01:03;98867.00;;;11.40
17142;BMP180;32805;53.556;9.944;2022-09-27T05:03:47;98872.00;;;11.40
17142;BMP180;32805;53.556;9.944;2022-09-27T05:06:15;98877.00;;;11.30
17142;BMP180;32805;53.556;9.944;2022-09-27T05:08:43;98881.00;;;11.30
17142;BMP180;32805;53.556;9.944;2022-09-27T05:11:23;98867.00;;;11.00
17142;BMP180;32805;53.556;9.944;2022-09-27T05:14:09;98878.00;;;10.90
17142;BMP180;32805;53.556;9.944;2022-09-27T05:16:48;98873.00;;;11.00
17142;BMP180;32805;53.556;9.944;2022-09-27T05:19:40;98871.00;;;10.90
17142;BMP180;32805;53.556;9.944;2022-09-27T05:22:18;98872.00;;;11.10
17142;BMP180;32805;53.556;9.944;2022-09-27T05:24:46;98864.00;;;11.00
17142;BMP180;32805;53.556;9.944;2022-09-27T05:27:15;98871.00;;;11.20
17142;BMP180;32805;53.556;9.944;2022-09-27T05:29:46;98866.00;;;11.10
17142;BMP180;32805;53.556;9.944;2022-09-27T05:32:28;98869.00;;;11.00
17142;BMP180;32805;53.556;9.944;2022-09-27T05:35:21;98878.00;;;11.20
17142;BMP180;32805;53.556;9.944;2022-09-27T05:37:53;98883.00;;;11.20
17142;BMP180;32805;53.556;9.944;2022-09-27T05:40:22;98880.00;;;11.00
17142;BMP180;32805;53.556;9.944;2022-09-27T05:43:09;98876.00;;;11.00
17142;BMP180;32805;53.556;9.944;2022-09-27T05:45:37;98879.00;;;11.00
17142;BMP180;32805;53.556;9.944;2022-09-27T05:48:07;98881.00;;;11.10
17142;BMP180;32805;53.556;9.944;2022-09-27T05:50:42;98880.00;;;11.20
17142;BMP180;32805;53.556;9.944;2022-09-27T05:53:11;98873.00;;;11.00
17142;BMP180;32805;53.556;9.944;2022-09-27T05:55:41;98874.00;;;11.10
17142;BMP180;32805;53.556;9.944;2022-09-27T05:58:10;98883.00;;;11.10
17142;BMP180;32805;53.556;9.944;2022-09-27T06:00:45;98869.00;;;11.10
17142;BMP180;32805;53.556;9.944;2022-09-27T06:03:35;98886.00;;;11.40
17142;BMP180;32805;53.556;9.944;2022-09-27T06:06:21;98882.00;;;11.50
17142;BMP180;32805;53.556;9.944;2022-09-27T06:08:53;98888.00;;;11.60
17142;BMP180;32805;53.556;9.944;2022-09-27T06:11:23;98890.00;;;11.50
17142;BMP180;32805;53.556;9.944;2022-09-27T06:13:51;98884.00;;;11.40
17142;BMP180;32805;53.556;9.944;2022-09-27T06:16:19;98867.00;;;11.40
17142;BMP180;32805;53.556;9.944;2022-09-27T06:18:49;98887.00;;;11.30
17142;BMP180;32805;53.556;9.944;2022-09-27T06:21:17;98871.00;;;11.20
17142;BMP180;32805;53.556;9.944;2022-09-27T06:23:52;98887.00;;;11.10
17142;BMP180;32805;53.556;9.944;2022-09-27T06:26:29;98883.00;;;11.00
17142;BMP180;32805;53.556;9.944;2022-09-27T06:29:08;98891.00;;;11.00
17142;BMP180;32805;53.556;9.944;2022-09-27T06:31:41;98896.00;;;10.80
17142;BMP180;32805;53.556;9.944;2022-09-27T06:34:30;98890.00;;;10.80
17142;BMP180;32805;53.556;9.944;2022-09-27T06:36:58;98882.00;;;10.80
17142;BMP180;32805;53.556;9.944;2022-09-27T06:39:27;98892.00;;;10.80
17142;BMP180;32805;53.556;9.944;2022-09-27T06:42:21;98896.00;;;10.80
17142;BMP180;32805;53.556;9.944;2022-09-27T06:45:06;98906.00;;;10.90
17142;BMP180;32805;53.556;9.944;2022-09-27T06:47:56;98914.00;;;11.00
17142;BMP180;32805;53.556;9.944;2022-09-27T06:50:52;98905.00;;;10.80
17142;BMP180;32805;53.556;9.944;2022-09-27T06:53:24;98904.00;;;10.80
17142;BMP180;32805;53.556;9.944;2022-09-27T06:55:57;98914.00;;;10.80
17142;BMP180;32805;53.556;9.944;2022-09-27T06:58:43;98914.00;;;10.80
17142;BMP180;32805;53.556;9.944;2022-09-27T07:01:44;98914.00;;;10.80
17142;BMP180;32805;53.556;9.944;2022-09-27T07:04:31;98922.00;;;10.70
17142;BMP180;32805;53.556;9.944;2022-09-27T07:07:24;98922.00;;;10.60
17142;BMP180;32805;53.556;9.944;2022-09-27T07:09:52;98932.00;;;10.60
17142;BMP180;32805;53.556;9.944;2022-09-27T07:12:20;98934.00;;;10.60
17142;BMP180;32805;53.556;9.944;2022-09-27T07:14:51;98940.00;;;10.80
17142;BMP180;32805;53.556;9.944;2022-09-27T07:17:27;98931.00;;;10.60
17142;BMP180;32805;53.556;9.944;2022-09-27T07:20:00;98932.00;;;10.80
17142;BMP180;32805;53.556;9.944;2022-09-27T07:22:30;98914.00;;;10.40
17142;BMP180;32805;53.556;9.944;2022-09-27T07:25:01;98934.00;;;10.30
17142;BMP180;32805;53.556;9.944;2022-09-27T07:27:30;98927.00;;;10.40
17142;BMP180;32805;53.556;9.944;2022-09-27T07:29:59;98933.00;;;10.40
17142;BMP180;32805;53.556;9.944;2022-09-27T07:32:28;98940.00;;;10.40
17142;BMP180;32805;53.556;9.944;2022-09-27T07:35:00;98942.00;;;10.40
17142;BMP180;32805;53.556;9.944;2022-09-27T07:37:32;98929.00;;;10.70
17142;BMP180;32805;53.556;9.944;2022-09-27T07:40:14;98960.00;;;10.60
17142;BMP180;32805;53.556;9.944;2022-09-27T07:42:45;98946.00;;;10.70
17142;BMP180;32805;53.556;9.944;2022-09-27T07:45:16;98947.00;;;10.70
17142;BMP180;32805;53.556;9.944;2022-09-27T07:48:03;98951.00;;;10.80
17142;BMP180;32805;53.556;9.944;2022-09-27T07:50:52;98952.00;;;10.90
17142;BMP180;32805;53.556;9.944;2022-09-27T07:53:41;98948.00;;;10.90
17142;BMP180;32805;53.556;9.944;2022-09-27T07:56:32;98955.00;;;10.80
17142;BMP180;32805;53.556;9.944;2022-09-27T07:59:05;98952.00;;;10.80
17142;BMP180;32805;53.556;9.944;2022-09-27T08:01:40;98947.00;;;10.80
17142;BMP180;32805;53.556;9.944;2022-09-27T08:04:08;98937.00;;;10.90
17142;BMP180;32805;53.556;9.944;2022-09-27T08:06:36;98949.00;;;10.90
17142;BMP180;32805;53.556;9.944;2022-09-27T08:09:15;98966.00;;;10.90
17142;BMP180;32805;53.556;9.944;2022-09-27T08:11:54;98941.00;;;10.80
17142;BMP180;32805;53.556;9.944;2022-09-27T08:14:31;98959.00;;;10.70
17142;BMP180;32805;53.556;9.944;2022-09-27T08:17:15;98947.00;;;10.70
17142;BMP180;32805;53.556;9.944;2022-09-27T08:20:06;98978.00;;;10.70
17142;BMP180;32805;53.556;9.944;2022-09-27T08:23:04;98986.00;;;10.80
17142;BMP180;32805;53.556;9.944;2022-09-27T08:25:53;98981.00;;;10.90
17142;BMP180;32805;53.556;9.944;2022-09-27T08:28:30;98970.00;;;10.90
17142;BMP180;32805;53.556;9.944;2022-09-27T08:31:20;98986.00;;;10.70
17142;BMP180;32805;53.556;9.944;2022-09-27T08:33:51;98989.00;;;10.60
17142;BMP180;32805;53.556;9.944;2022-09-27T08:36:22;98994.00;;;10.60
17142;BMP180;32805;53.556;9.944;2022-09-27T08:38:57;98987.00;;;10.70
17142;BMP180;32805;53.556;9.944;2022-09-27T08:41:37;98995.00;;;10.50
17142;BMP180;32805;53.556;9.944;2022-09-27T08:44:12;98993.00;;;10.50
17142;BMP180;32805;53.556;9.944;2022-09-27T08:47:10;99011.00;;;10.50
17142;BMP180;32805;53.556;9.944;2022-09-27T08:49:46;99002.00;;;10.40
17142;BMP180;32805;53.556;9.944;2022-09-27T08:52:18;99006.00;;;10.40
17142;BMP180;32805;53.556;9.944;2022-09-27T08:54:48;99016.00;;;10.40
17142;BMP180;32805;53.556;9.944;2022-09-27T08:57:20;99011.00;;;10.50
17142;BMP180;32805;53.556;9.944;2022-09-27T09:00:04;99021.00;;;10.40
17142;BMP180;32805;53.556;9.944;2022-09-27T09:02:34;99008.00;;;10.40
17142;BMP180;32805;53.556;9.944;2022-09-27T09:05:07;99029.00;;;10.30
17142;BMP180;32805;53.556;9.944;2022-09-27T09:07:45;99015.00;;;10.20
17142;BMP180;32805;53.556;9.944;2022-09-27T09:10:31;99023.00;;;10.20
17142;BMP180;32805;53.556;9.944;2022-09-27T09:13:28;99037.00;;;10.10
17142;BMP180;32805;53.556;9.944;2022-09-27T09:16:08;99030.00;;;10.20
17142;BMP180;32805;53.556;9.944;2022-09-27T09:18:56;99036.00;;;10.20
17142;BMP180;32805;53.556;9.944;2022-09-27T09:21:47;99030.00;;;10.30
17142;BMP180;32805;53.556;9.944;2022-09-27T09:24:39;99019.00;;;10.30
17142;BMP180;32805;53.556;9.944;2022-09-27T09:27:17;99049.00;;;10.40
17142;BMP180;32805;53.556;9.944;2022-09-27T09:30:04;99030.00;;;10.30
17142;BMP180;32805;53.556;9.944;2022-09-27T09:32:53;99049.00;;;10.40
17142;BMP180;32805;53.556;9.944;2022-09-27T09:35:25;99053.00;;;10.40
17142;BMP180;32805;53.556;9.944;2022-09-27T09:37:57;99056.00;;;10.40
17142;BMP180;32805;53.556;9.944;2022-09-27T09:40:37;99041.00;;;10.50
17142;BMP180;32805;53.556;9.944;2022-09-27T09:43:15;99051.00;;;10.40
17142;BMP180;32805;53.556;9.944;2022-09-27T09:46:20;99050.00;;;10.50
17142;BMP180;32805;53.556;9.944;2022-09-27T09:48:56;99051.00;;;10.50
17142;BMP180;32805;53.556;9.944;2022-09-27T09:51:33;99043.00;;;10.50
17142;BMP180;32805;53.556;9.944;2022-09-27T09:54:11;99058.00;;;10.60
17142;BMP180;32805;53.556;9.944;2022-09-27T09:56:46;99051.00;;;10.60
17142;BMP180;32805;53.556;9.944;2022-09-27T09:59:26;99055.00;;;10.60
17142;BMP180;32805;53.556;9.944;2022-09-27T10:02:27;99058.00;;;10.70
17142;BMP180;32805;53.556;9.944;2022-09-27T10:05:05;99059.00;;;10.70
17142;BMP180;32805;53.556;9.944;2022-09-27T10:07:36;99060.00;;;10.70
17142;BMP180;32805;53.556;9.944;2022-09-27T10:10:06;99053.00;;;10.70
17142;BMP180;32805;53.556;9.944;2022-09-27T10:12:55;99056.00;;;10.80
17142;BMP180;32805;53.556;9.944;2022-09-27T10:15:32;99053.00;;;10.70
17142;BMP180;32805;53.556;9.944;2022-09-27T10:18:03;99038.00;;;10.80
17142;BMP180;32805;53.556;9.944;2022-09-27T10:20:38;99057.00;;;11.10
17142;BMP180;32805;53.556;9.944;2022-09-27T10:23:12;99052.00;;;10.90
17142;BMP180;32805;53.556;9.944;2022-09-27T10:26:06;99059.00;;;10.90
17142;BMP180;32805;53.556;9.944;2022-09-27T10:28:47;99053.00;;;11.00
17142;BMP180;32805;53.556;9.944;2022-09-27T10:31:34;99058.00;;;11.10
17142;BMP180;32805;53.556;9.944;2022-09-27T10:34:23;99048.00;;;11.20
17142;BMP180;32805;53.556;9.944;2022-09-27T10:37:02;99040.00;;;11.20
17142;BMP180;32805;53.556;9.944;2022-09-27T10:39:33;99050.00;;;11.10
17142;BMP180;32805;53.556;9.944;2022-09-27T10:42:19;99067.00;;;11.10
17142;BMP180;32805;53.556;9.944;2022-09-27T10:44:55;99065.00;;;11.00
17142;BMP180;32805;53.556;9.944;2022-09-27T10:47:35;99071.00;;;11.00
17142;BMP180;32805;53.556;9.944;2022-09-27T10:50:24;99071.00;;;11.00
17142;BMP180;32805;53.556;9.944;2022-09-27T10:53:22;99068.00;;;11.20
17142;BMP180;32805;53.556;9.944;2022-09-27T10:56:06;99063.00;;;11.30
17142;BMP180;32805;53.556;9.944;2022-09-27T10:58:35;99081.00;;;11.20
17142;BMP180;32805;53.556;9.944;2022-09-27T11:01:08;99070.00;;;11.10
17142;BMP180;32805;53.556;9.944;2022-09-27T11:04:04;99083.00;;;10.90
17142;BMP180;32805;53.556;9.944;2022-09-27T11:06:35;99076.00;;;11.00
17142;BMP180;32805;53.556;9.944;2022-09-27T11:09:17;99083.00;;;11.00
17142;BMP180;32805;53.556;9.944;2022-09-27T11:11:49;99076.00;;;11.00
17142;BMP180;32805;53.556;9.944;2022-09-27T11:14:21;99072.00;;;11.00
17142;BMP180;32805;53.556;9.944;2022-09-27T11:17:04;99058.00;;;10.90
17142;BMP180;32805;53.556;9.944;2022-09-27T11:23:18;99059.00;;;11.00
17142;BMP180;32805;53.556;9.944;2022-09-27T11:26:13;99069.00;;;11.00
17142;BMP180;32805;53.556;9.944;2022-09-27T11:28:53;99080.00;;;11.10
17142;BMP180;32805;53.556;9.944;2022-09-27T11:32:10;99053.00;;;11.10
17142;BMP180;32805;53.556;9.944;2022-09-27T11:35:06;99071.00;;;11.10
17142;BMP180;32805;53.556;9.944;2022-09-27T11:37:46;99086.00;;;11.20
17142;BMP180;32805;53.556;9.944;2022-09-27T11:40:28;99081.00;;;11.40
17142;BMP180;32805;53.556;9.944;2022-09-27T11:43:19;99085.00;;;11.40
17142;BMP180;32805;53.556;9.944;2022-09-27T11:46:13;99085.00;;;11.50
17142;BMP180;32805;53.556;9.944;2022-09-27T11:49:18;99078.00;;;11.70
17142;BMP180;32805;53.556;9.944;2022-09-27T11:52:02;99092.00;;;11.40
17142;BMP180;32805;53.556;9.944;2022-09-27T11:54:54;99092.00;;;11.40
17142;BMP180;32805;53.556;9.944;2022-09-27T11:57:37;99090.00;;;11.40
17142;BMP180;32805;53.556;9.944;2022-09-27T12:00:29;99082.00;;;11.60
17142;BMP180;32805;53.556;9.944;2022-09-27T12:06:56;99086.00;;;11.90
17142;BMP180;32805;53.556;9.944;2022-09-27T12:09:31;99081.00;;;12.10
17142;BMP180;32805;53.556;9.944;2022-09-27T12:12:04;99093.00;;;12.00
17142;BMP180;32805;53.556;9.944;2022-09-27T12:14:40;99094.00;;;12.00
17142;BMP180;32805;53.556;9.944;2022-09-27T12:17:13;99092.00;;;12.00
17142;BMP180;32805;53.556;9.944;2022-09-27T12:19:47;99093.00;;;12.00
17142;BMP180;32805;53.556;9.944;2022-09-27T12:22:25;99094.00;;;12.00
17142;BMP180;32805;53.556;9.944;2022-09-27T12:25:20;99093.00;;;12.10
17142;BMP180;32805;53.556;9.944;2022-09-27T12:28:11;99101.00;;;12.10
17142;BMP180;32805;53.556;9.944;2022-09-27T12:30:47;99093.00;;;12.10
17142;BMP180;32805;53.556;9.944;2022-09-27T12:33:41;99098.00;;;12.20
17142;BMP180;32805;53.556;9.944;2022-09-27T12:36:14;99083.00;;;12.20
17142;BMP180;32805;53.556;9.944;2022-09-27T12:38:49;99087.00;;;12.30
17142;BMP180;32805;53.556;9.944;2022-09-27T12:41:23;99088.00;;;12.40
17142;BMP180;32805;53.556;9.944;2022-09-27T12:44:14;99086.00;;;12.30
17142;BMP180;32805;53.556;9.944;2022-09-27T12:47:00;99087.00;;;12.00
17142;BMP180;32805;53.556;9.944;2022-09-27T12:49:38;99086.00;;;11.80
17142;BMP180;32805;53.556;9.944;2022-09-27T12:52:15;99094.00;;;11.70
17142;BMP180;32805;53.556;9.944;2022-09-27T12:55:09;99099.00;;;11.60
17142;BMP180;32805;53.556;9.944;2022-09-27T12:57:50;99091.00;;;11.50
17142;BMP180;32805;53.556;9.944;2022-09-27T13:00:31;99108.00;;;11.40
17142;BMP180;32805;53.556;9.944;2022-09-27T13:03:28;99110.00;;;11.50
17142;BMP180;32805;53.556;9.944;2022-09-27T13:06:29;99115.00;;;11.50
17142;BMP180;32805;53.556;9.944;2022-09-27T13:12:05;99111.00;;;11.60
17142;BMP180;32805;53.556;9.944;2022-09-27T13:14:42;99115.00;;;11.70
17142;BMP180;32805;53.556;9.944;2022-09-27T13:17:48;99110.00;;;11.70
17142;BMP180;32805;53.556;9.944;2022-09-27T13:20:42;99111.00;;;11.80
17142;BMP180;32805;53.556;9.944;2022-09-27T13:23:55;99123.00;;;11.90
17142;BMP180;32805;53.556;9.944;2022-09-27T13:26:54;99129.00;;;11.90
17142;BMP180;32805;53.556;9.944;2022-09-27T13:29:33;99125.00;;;12.10
17142;BMP180;32805;53.556;9.944;2022-09-27T13:32:20;99132.00;;;12.10
17142;BMP180;32805;53.556;9.944;2022-09-27T13:35:11;99135.00;;;12.10
17142;BMP180;32805;53.556;9.944;2022-09-27T13:37:52;99129.00;;;12.10
17142;BMP180;32805;53.556;9.944;2022-09-27T13:40:33;99131.00;;;12.10
17142;BMP180;32805;53.556;9.944;2022-09-27T13:43:46;99139.00;;;12.20
17142;BMP180;32805;53.556;9.944;2022-09-27T13:46:29;99139.00;;;12.30
17142;BMP180;32805;53.556;9.944;2022-09-27T13:49:02;99134.00;;;12.30
17142;BMP180;32805;53.556;9.944;2022-09-27T13:51:59;99143.00;;;12.30
17142;BMP180;32805;53.556;9.944;2022-09-27T13:54:38;99145.00;;;12.30
17142;BMP180;32805;53.556;9.944;2022-09-27T13:57:37;99139.00;;;12.40
17142;BMP180;32805;53.556;9.944;2022-09-27T14:00:17;99142.00;;;12.50
17142;BMP180;32805;53.556;9.944;2022-09-27T14:02:57;99145.00;;;12.40
17142;BMP180;32805;53.556;9.944;2022-09-27T14:05:31;99145.00;;;12.40
17142;BMP180;32805;53.556;9.944;2022-09-27T14:08:11;99149.00;;;12.30
17142;BMP180;32805;53.556;9.944;2022-09-27T14:10:52;99152.00;;;12.30
17142;BMP180;32805;53.556;9.944;2022-09-27T14:13:31;99161.00;;;12.30
17142;BMP180;32805;53.556;9.944;2022-09-27T14:16:12;99164.00;;;12.30
17142;BMP180;32805;53.556;9.944;2022-09-27T14:19:42;99164.00;;;12.00
17142;BMP180;32805;53.556;9.944;2022-09-27T14:22:21;99164.00;;;12.00
17142;BMP180;32805;53.556;9.944;2022-09-27T14:24:56;99155.00;;;12.10
17142;BMP180;32805;53.556;9.944;2022-09-27T14:27:37;99169.00;;;12.30
17142;BMP180;32805;53.556;9.944;2022-09-27T14:30:26;99156.00;;;12.20
17142;BMP180;32805;53.556;9.944;2022-09-27T14:33:27;99155.00;;;12.20
17142;BMP180;32805;53.556;9.944;2022-09-27T14:36:05;99163.00;;;12.30
17142;BMP180;32805;53.556;9.944;2022-09-27T14:38:57;99161.00;;;12.40
17142;BMP180;32805;53.556;9.944;2022-09-27T14:41:34;99167.00;;;12.40
17142;BMP180;32805;53.556;9.944;2022-09-27T14:44:12;99166.00;;;12.50
17142;BMP180;32805;53.556;9.944;2022-09-27T14:46:40;99173.00;;;12.30
17142;BMP180;32805;53.556;9.944;2022-09-27T14:49:18;99174.00;;;12.40
17142;BMP180;32805;53.556;9.944;2022-09-27T14:51:51;99178.00;;;12.60
17142;BMP180;32805;53.556;9.944;2022-09-27T14:54:21;99179.00;;;12.50
17142;BMP180;32805;53.556;9.944;2022-09-27T14:56:51;99183.00;;;12.50
17142;BMP180;32805;53.556;9.944;2022-09-27T14:59:23;99185.00;;;12.40
17142;BMP180;32805;53.556;9.944;2022-09-27T15:01:57;99189.00;;;12.40
17142;BMP180;32805;53.556;9.944;2022-09-27T15:04:28;99178.00;;;12.50
17142;BMP180;32805;53.556;9.944;2022-09-27T15:06:59;99186.00;;;12.40
17142;BMP180;32805;53.556;9.944;2022-09-27T15:09:29;99188.00;;;12.40
17142;BMP180;32805;53.556;9.944;2022-09-27T15:12:00;99190.00;;;12.40
17142;BMP180;32805;53.556;9.944;2022-09-27T15:14:32;99185.00;;;12.40
17142;BMP180;32805;53.556;9.944;2022-09-27T15:17:14;99192.00;;;12.30
17142;BMP180;32805;53.556;9.944;2022-09-27T15:19:56;99193.00;;;12.10
17142;BMP180;32805;53.556;9.944;2022-09-27T15:22:36;99190.00;;;12.10
17142;BMP180;32805;53.556;9.944;2022-09-27T15:25:16;99188.00;;;12.10
17142;BMP180;32805;53.556;9.944;2022-09-27T15:27:50;99203.00;;;12.00
17142;BMP180;32805;53.556;9.944;2022-09-27T15:30:32;99202.00;;;12.00